sensor_id;sensor_type;location;lat;lon;timestamp;P1;durP1;ratioP1;P2;durP2;ratioP2
52126;SDS011;38120;53.176;6.614;2024-01-15T00:00:50;15.30;;;3.63;;
52126;SDS011;38120;53.176;6.614;2024-01-15T00:03:15;17.37;;;5.50;;
52126;SDS011;38120;53.176;6.614;2024-01-15T00:05:41;13.20;;;3.50;;
52126;SDS011;38120;53.176;6.614;2024-01-15T00:08:07;16.93;;;4.63;;
52126;SDS011;38120;53.176;6.614;2024-01-15T00:10:32;16.10;;;4.67;;
52126;SDS011;38120;53.176;6.614;2024-01-15T00:12:58;10.27;;;3.70;;
52126;SDS011;38120;53.176;6.614;2024-01-15T00:15:23;10.20;;;3.10;;
52126;SDS011;38120;53.176;6.614;2024-01-15T00:17:50;10.10;;;3.35;;
52126;SDS011;38120;53.176;6.614;2024-01-15T00:20:15;7.67;;;2.43;;
52126;SDS011;38120;53.176;6.614;2024-01-15T00:22:41;8.07;;;3.17;;
52126;SDS011;38120;53.176;6.614;2024-01-15T00:25:07;8.50;;;3.67;;
52126;SDS011;38120;53.176;6.614;2024-01-15T00:27:33;13.13;;;3.28;;
52126;SDS011;38120;53.176;6.614;2024-01-15T00:29:58;11.43;;;2.10;;
52126;SDS011;38120;53.176;6.614;2024-01-15T00:32:24;5.80;;;2.00;;
52126;SDS011;38120;53.176;6.614;2024-01-15T00:34:50;6.77;;;2.23;;
52126;SDS011;38120;53.176;6.614;2024-01-15T00:37:15;6.95;;;1.98;;
52126;SDS011;38120;53.176;6.614;2024-01-15T00:39:41;6.83;;;2.47;;
52126;SDS011;38120;53.176;6.614;2024-01-15T00:42:07;11.45;;;3.15;;
52126;SDS011;38120;53.176;6.614;2024-01-15T00:44:33;9.52;;;2.72;;
52126;SDS011;38120;53.176;6.614;2024-01-15T00:46:59;4.50;;;1.20;;
52126;SDS011;38120;53.176;6.614;2024-01-15T00:49:24;6.67;;;1.50;;
52126;SDS011;38120;53.176;6.614;2024-01-15T00:51:52;5.80;;;1.50;;
52126;SDS011;38120;53.176;6.614;2024-01-15T00:54:17;5.70;;;2.57;;
52126;SDS011;38120;53.176;6.614;2024-01-15T00:56:43;6.33;;;2.30;;
52126;SDS011;38120;53.176;6.614;2024-01-15T00:59:08;6.33;;;2.17;;
52126;SDS011;38120;53.176;6.614;2024-01-15T01:04:02;6.65;;;2.25;;
52126;SDS011;38120;53.176;6.614;2024-01-15T01:06:28;6.18;;;1.95;;
52126;SDS011;38120;53.176;6.614;2024-01-15T01:08:54;7.67;;;1.93;;
52126;SDS011;38120;53.176;6.614;2024-01-15T01:11:20;12.27;;;2.17;;
52126;SDS011;38120;53.176;6.614;2024-01-15T01:13:45;6.93;;;2.40;;
52126;SDS011;38120;53.176;6.614;2024-01-15T01:16:11;9.20;;;2.13;;
52126;SDS011;38120;53.176;6.614;2024-01-15T01:18:37;9.40;;;3.50;;
52126;SDS011;38120;53.176;6.614;2024-01-15T01:21:02;10.33;;;3.60;;
52126;SDS011;38120;53.176;6.614;2024-01-15T01:23:28;13.65;;;4.15;;
52126;SDS011;38120;53.176;6.614;2024-01-15T01:25:54;17.50;;;4.70;;
52126;SDS011;38120;53.176;6.614;2024-01-15T01:28:20;20.07;;;4.90;;
52126;SDS011;38120;53.176;6.614;2024-01-15T01:30:45;11.80;;;3.70;;
52126;SDS011;38120;53.176;6.614;2024-01-15T01:33:11;13.03;;;3.60;;
52126;SDS011;38120;53.176;6.614;2024-01-15T01:35:37;11.33;;;3.00;;
52126;SDS011;38120;53.176;6.614;2024-01-15T01:38:03;10.50;;;3.13;;
52126;SDS011;38120;53.176;6.614;2024-01-15T01:40:29;18.60;;;3.70;;
52126;SDS011;38120;53.176;6.614;2024-01-15T01:42:54;18.07;;;3.70;;
52126;SDS011;38120;53.176;6.614;2024-01-15T01:45:20;11.17;;;3.73;;
52126;SDS011;38120;53.176;6.614;2024-01-15T01:47:46;13.97;;;4.20;;
52126;SDS011;38120;53.176;6.614;2024-01-15T01:50:12;11.18;;;3.30;;
52126;SDS011;38120;53.176;6.614;2024-01-15T01:55:04;9.13;;;3.10;;
52126;SDS011;38120;53.176;6.614;2024-01-15T01:57:31;8.85;;;2.90;;
52126;SDS011;38120;53.176;6.614;2024-01-15T01:59:59;10.32;;;3.00;;
52126;SDS011;38120;53.176;6.614;2024-01-15T02:02:25;9.77;;;2.88;;
52126;SDS011;38120;53.176;6.614;2024-01-15T02:04:51;15.43;;;3.37;;
52126;SDS011;38120;53.176;6.614;2024-01-15T02:07:16;10.50;;;2.97;;
52126;SDS011;38120;53.176;6.614;2024-01-15T02:09:43;9.50;;;3.33;;
52126;SDS011;38120;53.176;6.614;2024-01-15T02:12:10;9.20;;;2.85;;
52126;SDS011;38120;53.176;6.614;2024-01-15T02:14:36;9.20;;;3.67;;
52126;SDS011;38120;53.176;6.614;2024-01-15T02:17:01;12.35;;;3.60;;
52126;SDS011;38120;53.176;6.614;2024-01-15T02:19:27;15.70;;;3.33;;
52126;SDS011;38120;53.176;6.614;2024-01-15T02:21:53;8.73;;;3.47;;
52126;SDS011;38120;53.176;6.614;2024-01-15T02:24:18;10.43;;;2.87;;
52126;SDS011;38120;53.176;6.614;2024-01-15T02:26:44;13.23;;;3.40;;
52126;SDS011;38120;53.176;6.614;2024-01-15T02:29:10;9.65;;;2.70;;
52126;SDS011;38120;53.176;6.614;2024-01-15T02:31:37;12.80;;;3.17;;
52126;SDS011;38120;53.176;6.614;2024-01-15T02:34:03;14.40;;;3.43;;
52126;SDS011;38120;53.176;6.614;2024-01-15T02:36:28;16.10;;;3.37;;
52126;SDS011;38120;53.176;6.614;2024-01-15T02:38:54;11.53;;;3.07;;
52126;SDS011;38120;53.176;6.614;2024-01-15T02:41:20;9.23;;;2.73;;
52126;SDS011;38120;53.176;6.614;2024-01-15T02:43:45;12.83;;;3.07;;
52126;SDS011;38120;53.176;6.614;2024-01-15T02:46:11;13.83;;;3.50;;
52126;SDS011;38120;53.176;6.614;2024-01-15T02:48:37;15.70;;;3.83;;
52126;SDS011;38120;53.176;6.614;2024-01-15T02:51:03;12.97;;;3.77;;
52126;SDS011;38120;53.176;6.614;2024-01-15T02:53:28;9.80;;;3.17;;
52126;SDS011;38120;53.176;6.614;2024-01-15T02:55:54;10.43;;;3.23;;
52126;SDS011;38120;53.176;6.614;2024-01-15T02:58:20;10.17;;;4.00;;
52126;SDS011;38120;53.176;6.614;2024-01-15T03:00:46;17.48;;;3.83;;
52126;SDS011;38120;53.176;6.614;2024-01-15T03:03:12;16.60;;;3.67;;
52126;SDS011;38120;53.176;6.614;2024-01-15T03:05:38;13.90;;;3.17;;
52126;SDS011;38120;53.176;6.614;2024-01-15T03:08:04;12.77;;;4.57;;
52126;SDS011;38120;53.176;6.614;2024-01-15T03:10:29;13.27;;;3.92;;
52126;SDS011;38120;53.176;6.614;2024-01-15T03:12:55;12.67;;;3.70;;
52126;SDS011;38120;53.176;6.614;2024-01-15T03:15:21;8.20;;;3.30;;
52126;SDS011;38120;53.176;6.614;2024-01-15T03:17:46;14.17;;;3.63;;
52126;SDS011;38120;53.176;6.614;2024-01-15T03:20:12;13.10;;;4.30;;
52126;SDS011;38120;53.176;6.614;2024-01-15T03:22:38;10.53;;;3.90;;
52126;SDS011;38120;53.176;6.614;2024-01-15T03:25:04;11.63;;;3.20;;
52126;SDS011;38120;53.176;6.614;2024-01-15T03:27:30;15.23;;;4.25;;
52126;SDS011;38120;53.176;6.614;2024-01-15T03:29:55;13.40;;;3.40;;
52126;SDS011;38120;53.176;6.614;2024-01-15T03:32:21;12.53;;;4.00;;
52126;SDS011;38120;53.176;6.614;2024-01-15T03:34:46;16.03;;;4.63;;
52126;SDS011;38120;53.176;6.614;2024-01-15T03:37:13;19.60;;;5.80;;
52126;SDS011;38120;53.176;6.614;2024-01-15T03:39:39;17.00;;;5.65;;
52126;SDS011;38120;53.176;6.614;2024-01-15T03:42:05;22.27;;;5.27;;
52126;SDS011;38120;53.176;6.614;2024-01-15T03:44:31;23.67;;;5.57;;
52126;SDS011;38120;53.176;6.614;2024-01-15T03:46:56;16.37;;;6.03;;
52126;SDS011;38120;53.176;6.614;2024-01-15T03:49:23;24.98;;;6.15;;
52126;SDS011;38120;53.176;6.614;2024-01-15T03:51:48;18.63;;;4.70;;
52126;SDS011;38120;53.176;6.614;2024-01-15T03:54:14;17.97;;;4.70;;
52126;SDS011;38120;53.176;6.614;2024-01-15T03:56:40;14.60;;;4.93;;
52126;SDS011;38120;53.176;6.614;2024-01-15T03:59:05;12.37;;;4.20;;
52126;SDS011;38120;53.176;6.614;2024-01-15T04:01:31;18.17;;;4.93;;
52126;SDS011;38120;53.176;6.614;2024-01-15T04:03:57;12.93;;;4.10;;
52126;SDS011;38120;53.176;6.614;2024-01-15T04:06:22;14.90;;;5.73;;
52126;SDS011;38120;53.176;6.614;2024-01-15T04:08:48;15.63;;;4.67;;
52126;SDS011;38120;53.176;6.614;2024-01-15T04:11:14;15.03;;;5.03;;
52126;SDS011;38120;53.176;6.614;2024-01-15T04:13:39;18.23;;;3.80;;
52126;SDS011;38120;53.176;6.614;2024-01-15T04:16:05;11.27;;;3.00;;
52126;SDS011;38120;53.176;6.614;2024-01-15T04:18:31;10.43;;;2.73;;
52126;SDS011;38120;53.176;6.614;2024-01-15T04:20:56;11.70;;;2.93;;
52126;SDS011;38120;53.176;6.614;2024-01-15T04:23:22;9.93;;;2.80;;
52126;SDS011;38120;53.176;6.614;2024-01-15T04:25:47;10.00;;;2.80;;
52126;SDS011;38120;53.176;6.614;2024-01-15T04:28:13;8.03;;;2.73;;
52126;SDS011;38120;53.176;6.614;2024-01-15T04:30:39;7.50;;;2.17;;
52126;SDS011;38120;53.176;6.614;2024-01-15T04:33:04;14.63;;;4.03;;
52126;SDS011;38120;53.176;6.614;2024-01-15T04:35:30;9.13;;;3.58;;
52126;SDS011;38120;53.176;6.614;2024-01-15T04:37:56;9.57;;;3.13;;
52126;SDS011;38120;53.176;6.614;2024-01-15T04:40:22;8.10;;;2.30;;
52126;SDS011;38120;53.176;6.614;2024-01-15T04:42:48;7.97;;;2.60;;
52126;SDS011;38120;53.176;6.614;2024-01-15T04:45:13;10.00;;;3.03;;
52126;SDS011;38120;53.176;6.614;2024-01-15T04:47:39;8.40;;;3.40;;
52126;SDS011;38120;53.176;6.614;2024-01-15T04:50:05;8.07;;;2.20;;
52126;SDS011;38120;53.176;6.614;2024-01-15T04:52:31;6.20;;;2.22;;
52126;SDS011;38120;53.176;6.614;2024-01-15T04:54:57;4.82;;;1.80;;
52126;SDS011;38120;53.176;6.614;2024-01-15T04:57:23;8.43;;;2.27;;
52126;SDS011;38120;53.176;6.614;2024-01-15T04:59:48;9.20;;;2.40;;
52126;SDS011;38120;53.176;6.614;2024-01-15T05:02:14;8.67;;;2.00;;
52126;SDS011;38120;53.176;6.614;2024-01-15T05:04:40;11.43;;;3.13;;
52126;SDS011;38120;53.176;6.614;2024-01-15T05:07:06;10.00;;;1.90;;
52126;SDS011;38120;53.176;6.614;2024-01-15T05:09:31;7.50;;;2.50;;
52126;SDS011;38120;53.176;6.614;2024-01-15T05:11:57;4.40;;;1.47;;
52126;SDS011;38120;53.176;6.614;2024-01-15T05:14:23;7.70;;;1.87;;
52126;SDS011;38120;53.176;6.614;2024-01-15T05:16:49;8.07;;;2.03;;
52126;SDS011;38120;53.176;6.614;2024-01-15T05:19:15;5.80;;;1.80;;
52126;SDS011;38120;53.176;6.614;2024-01-15T05:21:41;8.83;;;1.77;;
52126;SDS011;38120;53.176;6.614;2024-01-15T05:24:07;6.87;;;2.00;;
52126;SDS011;38120;53.176;6.614;2024-01-15T05:26:33;8.50;;;2.50;;
52126;SDS011;38120;53.176;6.614;2024-01-15T05:28:59;5.70;;;2.23;;
52126;SDS011;38120;53.176;6.614;2024-01-15T05:31:25;4.35;;;1.73;;
52126;SDS011;38120;53.176;6.614;2024-01-15T05:33:50;10.03;;;2.33;;
52126;SDS011;38120;53.176;6.614;2024-01-15T05:36:16;11.37;;;2.20;;
52126;SDS011;38120;53.176;6.614;2024-01-15T05:38:42;9.10;;;2.53;;
52126;SDS011;38120;53.176;6.614;2024-01-15T05:41:07;10.43;;;2.50;;
52126;SDS011;38120;53.176;6.614;2024-01-15T05:43:33;9.23;;;2.80;;
52126;SDS011;38120;53.176;6.614;2024-01-15T05:45:59;5.57;;;2.30;;
52126;SDS011;38120;53.176;6.614;2024-01-15T05:48:24;11.50;;;3.53;;
52126;SDS011;38120;53.176;6.614;2024-01-15T05:50:50;8.37;;;2.60;;
52126;SDS011;38120;53.176;6.614;2024-01-15T05:53:15;14.13;;;3.13;;
52126;SDS011;38120;53.176;6.614;2024-01-15T05:55:41;13.73;;;4.37;;
52126;SDS011;38120;53.176;6.614;2024-01-15T05:58:07;10.70;;;3.57;;
52126;SDS011;38120;53.176;6.614;2024-01-15T06:00:32;10.77;;;3.23;;
52126;SDS011;38120;53.176;6.614;2024-01-15T06:03:00;17.90;;;4.20;;
52126;SDS011;38120;53.176;6.614;2024-01-15T06:05:26;13.07;;;4.00;;
52126;SDS011;38120;53.176;6.614;2024-01-15T06:07:52;9.65;;;3.72;;
52126;SDS011;38120;53.176;6.614;2024-01-15T06:10:18;11.80;;;3.23;;
52126;SDS011;38120;53.176;6.614;2024-01-15T06:12:44;15.60;;;4.30;;
52126;SDS011;38120;53.176;6.614;2024-01-15T06:15:09;16.85;;;4.57;;
52126;SDS011;38120;53.176;6.614;2024-01-15T06:17:35;11.93;;;4.03;;
52126;SDS011;38120;53.176;6.614;2024-01-15T06:20:01;17.42;;;4.78;;
52126;SDS011;38120;53.176;6.614;2024-01-15T06:22:28;16.98;;;3.72;;
52126;SDS011;38120;53.176;6.614;2024-01-15T06:24:54;10.47;;;3.67;;
52126;SDS011;38120;53.176;6.614;2024-01-15T06:27:20;12.05;;;3.83;;
52126;SDS011;38120;53.176;6.614;2024-01-15T06:29:46;12.38;;;4.95;;
52126;SDS011;38120;53.176;6.614;2024-01-15T06:32:12;10.43;;;3.67;;
52126;SDS011;38120;53.176;6.614;2024-01-15T06:34:38;14.43;;;4.45;;
52126;SDS011;38120;53.176;6.614;2024-01-15T06:37:04;13.05;;;4.25;;
52126;SDS011;38120;53.176;6.614;2024-01-15T06:39:30;11.43;;;4.15;;
52126;SDS011;38120;53.176;6.614;2024-01-15T06:41:56;12.73;;;3.83;;
52126;SDS011;38120;53.176;6.614;2024-01-15T06:44:22;19.67;;;4.30;;
52126;SDS011;38120;53.176;6.614;2024-01-15T06:46:47;11.93;;;3.65;;
52126;SDS011;38120;53.176;6.614;2024-01-15T06:49:14;14.40;;;3.63;;
52126;SDS011;38120;53.176;6.614;2024-01-15T06:51:39;12.83;;;3.80;;
52126;SDS011;38120;53.176;6.614;2024-01-15T06:54:05;13.53;;;3.67;;
52126;SDS011;38120;53.176;6.614;2024-01-15T06:56:31;14.13;;;4.43;;
52126;SDS011;38120;53.176;6.614;2024-01-15T06:58:57;16.45;;;3.72;;
52126;SDS011;38120;53.176;6.614;2024-01-15T07:01:23;20.27;;;5.38;;
52126;SDS011;38120;53.176;6.614;2024-01-15T07:03:49;17.53;;;4.67;;
52126;SDS011;38120;53.176;6.614;2024-01-15T07:06:14;13.33;;;5.03;;
52126;SDS011;38120;53.176;6.614;2024-01-15T07:08:41;15.18;;;4.28;;
52126;SDS011;38120;53.176;6.614;2024-01-15T07:11:07;15.02;;;4.70;;
52126;SDS011;38120;53.176;6.614;2024-01-15T07:13:33;16.88;;;3.97;;
52126;SDS011;38120;53.176;6.614;2024-01-15T07:16:00;10.38;;;3.78;;
52126;SDS011;38120;53.176;6.614;2024-01-15T07:18:26;14.53;;;4.67;;
52126;SDS011;38120;53.176;6.614;2024-01-15T07:20:52;14.37;;;4.60;;
52126;SDS011;38120;53.176;6.614;2024-01-15T07:23:18;13.05;;;4.55;;
52126;SDS011;38120;53.176;6.614;2024-01-15T07:25:43;17.10;;;4.87;;
52126;SDS011;38120;53.176;6.614;2024-01-15T07:28:09;17.57;;;4.30;;
52126;SDS011;38120;53.176;6.614;2024-01-15T07:30:35;13.20;;;4.77;;
52126;SDS011;38120;53.176;6.614;2024-01-15T07:33:03;16.08;;;4.32;;
52126;SDS011;38120;53.176;6.614;2024-01-15T07:35:29;17.35;;;4.60;;
52126;SDS011;38120;53.176;6.614;2024-01-15T07:37:58;15.93;;;4.40;;
52126;SDS011;38120;53.176;6.614;2024-01-15T07:40:24;13.85;;;3.47;;
52126;SDS011;38120;53.176;6.614;2024-01-15T07:42:50;15.80;;;4.10;;
52126;SDS011;38120;53.176;6.614;2024-01-15T07:45:16;15.20;;;4.88;;
52126;SDS011;38120;53.176;6.614;2024-01-15T07:47:41;15.13;;;3.93;;
52126;SDS011;38120;53.176;6.614;2024-01-15T07:50:10;10.67;;;3.37;;
52126;SDS011;38120;53.176;6.614;2024-01-15T07:52:36;13.43;;;3.83;;
52126;SDS011;38120;53.176;6.614;2024-01-15T07:55:02;10.40;;;3.23;;
52126;SDS011;38120;53.176;6.614;2024-01-15T07:57:34;10.50;;;3.80;;
52126;SDS011;38120;53.176;6.614;2024-01-15T08:00:01;13.40;;;4.75;;
52126;SDS011;38120;53.176;6.614;2024-01-15T08:02:29;12.80;;;3.92;;
52126;SDS011;38120;53.176;6.614;2024-01-15T08:04:54;15.67;;;4.03;;
52126;SDS011;38120;53.176;6.614;2024-01-15T08:07:20;16.67;;;4.43;;
52126;SDS011;38120;53.176;6.614;2024-01-15T08:09:46;13.82;;;3.88;;
52126;SDS011;38120;53.176;6.614;2024-01-15T08:14:39;15.32;;;4.20;;
52126;SDS011;38120;53.176;6.614;2024-01-15T08:17:05;10.43;;;2.60;;
52126;SDS011;38120;53.176;6.614;2024-01-15T08:19:31;10.68;;;3.53;;
52126;SDS011;38120;53.176;6.614;2024-01-15T08:21:57;12.67;;;4.30;;
52126;SDS011;38120;53.176;6.614;2024-01-15T08:24:22;13.47;;;3.97;;
52126;SDS011;38120;53.176;6.614;2024-01-15T08:26:48;10.37;;;3.60;;
52126;SDS011;38120;53.176;6.614;2024-01-15T08:29:14;14.00;;;2.90;;
52126;SDS011;38120;53.176;6.614;2024-01-15T08:31:39;11.43;;;3.63;;
52126;SDS011;38120;53.176;6.614;2024-01-15T08:34:05;8.10;;;2.47;;
52126;SDS011;38120;53.176;6.614;2024-01-15T08:36:31;10.68;;;2.55;;
52126;SDS011;38120;53.176;6.614;2024-01-15T08:38:57;6.20;;;2.55;;
52126;SDS011;38120;53.176;6.614;2024-01-15T08:41:23;12.07;;;2.60;;
52126;SDS011;38120;53.176;6.614;2024-01-15T08:43:49;8.83;;;2.20;;
52126;SDS011;38120;53.176;6.614;2024-01-15T08:46:15;7.43;;;2.07;;
52126;SDS011;38120;53.176;6.614;2024-01-15T08:48:40;11.10;;;2.03;;
52126;SDS011;38120;53.176;6.614;2024-01-15T08:51:06;5.90;;;1.90;;
52126;SDS011;38120;53.176;6.614;2024-01-15T08:55:58;9.10;;;1.90;;
52126;SDS011;38120;53.176;6.614;2024-01-15T08:58:24;6.50;;;1.93;;
52126;SDS011;38120;53.176;6.614;2024-01-15T09:00:50;9.25;;;2.45;;
52126;SDS011;38120;53.176;6.614;2024-01-15T09:03:16;8.43;;;1.95;;
52126;SDS011;38120;53.176;6.614;2024-01-15T09:05:42;6.47;;;2.33;;
52126;SDS011;38120;53.176;6.614;2024-01-15T09:08:08;6.87;;;2.03;;
52126;SDS011;38120;53.176;6.614;2024-01-15T09:10:34;6.93;;;2.38;;
52126;SDS011;38120;53.176;6.614;2024-01-15T09:13:00;8.05;;;1.95;;
52126;SDS011;38120;53.176;6.614;2024-01-15T09:15:25;6.07;;;1.87;;
52126;SDS011;38120;53.176;6.614;2024-01-15T09:17:51;6.60;;;1.80;;
52126;SDS011;38120;53.176;6.614;2024-01-15T09:20:17;4.70;;;1.87;;
52126;SDS011;38120;53.176;6.614;2024-01-15T09:22:43;10.90;;;2.28;;
52126;SDS011;38120;53.176;6.614;2024-01-15T09:25:09;5.18;;;1.95;;
52126;SDS011;38120;53.176;6.614;2024-01-15T09:27:35;6.70;;;2.03;;
52126;SDS011;38120;53.176;6.614;2024-01-15T09:30:02;7.15;;;1.95;;
52126;SDS011;38120;53.176;6.614;2024-01-15T09:32:28;4.57;;;1.80;;
52126;SDS011;38120;53.176;6.614;2024-01-15T09:34:54;7.63;;;2.37;;
52126;SDS011;38120;53.176;6.614;2024-01-15T09:37:20;7.90;;;1.77;;
52126;SDS011;38120;53.176;6.614;2024-01-15T09:39:46;10.10;;;2.03;;
52126;SDS011;38120;53.176;6.614;2024-01-15T09:42:13;5.53;;;1.58;;
52126;SDS011;38120;53.176;6.614;2024-01-15T09:47:06;13.85;;;2.45;;
52126;SDS011;38120;53.176;6.614;2024-01-15T09:49:32;5.60;;;2.22;;
52126;SDS011;38120;53.176;6.614;2024-01-15T09:51:58;7.25;;;2.08;;
52126;SDS011;38120;53.176;6.614;2024-01-15T09:54:25;7.25;;;2.70;;
52126;SDS011;38120;53.176;6.614;2024-01-15T09:56:51;7.68;;;2.42;;
52126;SDS011;38120;53.176;6.614;2024-01-15T10:01:44;8.30;;;2.53;;
52126;SDS011;38120;53.176;6.614;2024-01-15T10:04:10;9.43;;;3.10;;
52126;SDS011;38120;53.176;6.614;2024-01-15T10:06:38;6.85;;;2.20;;
52126;SDS011;38120;53.176;6.614;2024-01-15T10:09:04;10.98;;;3.22;;
52126;SDS011;38120;53.176;6.614;2024-01-15T10:11:32;9.15;;;2.65;;
52126;SDS011;38120;53.176;6.614;2024-01-15T10:13:58;7.47;;;2.57;;
52126;SDS011;38120;53.176;6.614;2024-01-15T10:16:24;14.57;;;2.77;;
52126;SDS011;38120;53.176;6.614;2024-01-15T10:21:16;11.90;;;3.63;;
52126;SDS011;38120;53.176;6.614;2024-01-15T10:23:42;11.45;;;3.72;;
52126;SDS011;38120;53.176;6.614;2024-01-15T10:26:08;7.70;;;2.70;;
52126;SDS011;38120;53.176;6.614;2024-01-15T10:28:34;10.70;;;3.73;;
52126;SDS011;38120;53.176;6.614;2024-01-15T10:31:00;10.23;;;3.37;;
52126;SDS011;38120;53.176;6.614;2024-01-15T10:33:26;9.90;;;3.47;;
52126;SDS011;38120;53.176;6.614;2024-01-15T10:35:55;12.10;;;3.25;;
52126;SDS011;38120;53.176;6.614;2024-01-15T10:38:25;13.45;;;3.15;;
52126;SDS011;38120;53.176;6.614;2024-01-15T10:40:52;13.80;;;3.17;;
52126;SDS011;38120;53.176;6.614;2024-01-15T10:43:18;13.70;;;3.38;;
52126;SDS011;38120;53.176;6.614;2024-01-15T10:45:44;11.25;;;3.30;;
52126;SDS011;38120;53.176;6.614;2024-01-15T10:48:11;11.15;;;3.13;;
52126;SDS011;38120;53.176;6.614;2024-01-15T10:50:37;11.30;;;2.70;;
52126;SDS011;38120;53.176;6.614;2024-01-15T10:53:03;8.60;;;3.10;;
52126;SDS011;38120;53.176;6.614;2024-01-15T10:57:57;10.38;;;2.58;;
52126;SDS011;38120;53.176;6.614;2024-01-15T11:00:23;8.82;;;2.42;;
52126;SDS011;38120;53.176;6.614;2024-01-15T11:02:50;12.05;;;3.05;;
52126;SDS011;38120;53.176;6.614;2024-01-15T11:05:16;10.23;;;2.40;;
52126;SDS011;38120;53.176;6.614;2024-01-15T11:07:47;9.18;;;2.33;;
52126;SDS011;38120;53.176;6.614;2024-01-15T11:13:14;8.45;;;1.98;;
52126;SDS011;38120;53.176;6.614;2024-01-15T11:21:21;6.40;;;1.80;;
52126;SDS011;38120;53.176;6.614;2024-01-15T11:29:04;7.10;;;1.80;;
52126;SDS011;38120;53.176;6.614;2024-01-15T11:34:04;4.63;;;1.15;;
52126;SDS011;38120;53.176;6.614;2024-01-15T11:41:52;3.67;;;0.95;;
52126;SDS011;38120;53.176;6.614;2024-01-15T11:44:20;6.25;;;1.23;;
52126;SDS011;38120;53.176;6.614;2024-01-15T11:46:51;4.57;;;1.08;;
52126;SDS011;38120;53.176;6.614;2024-01-15T11:52:12;2.75;;;1.08;;
52126;SDS011;38120;53.176;6.614;2024-01-15T11:54:42;7.13;;;1.45;;
52126;SDS011;38120;53.176;6.614;2024-01-15T11:57:17;4.63;;;1.00;;
52126;SDS011;38120;53.176;6.614;2024-01-15T11:59:55;5.03;;;1.40;;
52126;SDS011;38120;53.176;6.614;2024-01-15T12:02:21;6.13;;;1.20;;
52126;SDS011;38120;53.176;6.614;2024-01-15T12:04:48;4.85;;;1.42;;
52126;SDS011;38120;53.176;6.614;2024-01-15T12:07:13;5.63;;;0.93;;
52126;SDS011;38120;53.176;6.614;2024-01-15T12:09:45;4.30;;;0.90;;
52126;SDS011;38120;53.176;6.614;2024-01-15T12:12:13;4.45;;;1.23;;
52126;SDS011;38120;53.176;6.614;2024-01-15T12:14:48;3.88;;;1.33;;
52126;SDS011;38120;53.176;6.614;2024-01-15T12:17:14;4.33;;;1.30;;
52126;SDS011;38120;53.176;6.614;2024-01-15T12:19:40;6.90;;;1.63;;
52126;SDS011;38120;53.176;6.614;2024-01-15T12:22:06;8.73;;;1.63;;
52126;SDS011;38120;53.176;6.614;2024-01-15T12:24:32;6.68;;;1.55;;
52126;SDS011;38120;53.176;6.614;2024-01-15T12:26:57;5.73;;;1.70;;
52126;SDS011;38120;53.176;6.614;2024-01-15T12:29:23;5.27;;;1.90;;
52126;SDS011;38120;53.176;6.614;2024-01-15T12:31:49;10.63;;;2.33;;
52126;SDS011;38120;53.176;6.614;2024-01-15T12:34:16;10.70;;;3.40;;
52126;SDS011;38120;53.176;6.614;2024-01-15T12:36:42;11.88;;;2.88;;
52126;SDS011;38120;53.176;6.614;2024-01-15T12:39:11;8.40;;;3.10;;
52126;SDS011;38120;53.176;6.614;2024-01-15T12:41:37;10.60;;;2.22;;
52126;SDS011;38120;53.176;6.614;2024-01-15T12:44:04;10.10;;;2.38;;
52126;SDS011;38120;53.176;6.614;2024-01-15T12:46:30;9.00;;;2.50;;
52126;SDS011;38120;53.176;6.614;2024-01-15T12:48:56;7.38;;;2.20;;
52126;SDS011;38120;53.176;6.614;2024-01-15T12:51:25;5.53;;;2.10;;
52126;SDS011;38120;53.176;6.614;2024-01-15T12:53:52;6.95;;;2.13;;
52126;SDS011;38120;53.176;6.614;2024-01-15T12:56:18;11.90;;;2.60;;
52126;SDS011;38120;53.176;6.614;2024-01-15T12:58:44;8.80;;;3.00;;
52126;SDS011;38120;53.176;6.614;2024-01-15T13:01:10;14.43;;;2.80;;
52126;SDS011;38120;53.176;6.614;2024-01-15T13:03:36;6.70;;;2.13;;
52126;SDS011;38120;53.176;6.614;2024-01-15T13:06:02;7.80;;;2.95;;
52126;SDS011;38120;53.176;6.614;2024-01-15T13:08:28;7.20;;;2.93;;
52126;SDS011;38120;53.176;6.614;2024-01-15T13:10:55;8.02;;;3.03;;
52126;SDS011;38120;53.176;6.614;2024-01-15T13:13:21;12.88;;;3.30;;
52126;SDS011;38120;53.176;6.614;2024-01-15T13:15:51;10.07;;;3.00;;
52126;SDS011;38120;53.176;6.614;2024-01-15T13:18:16;9.50;;;3.15;;
52126;SDS011;38120;53.176;6.614;2024-01-15T13:20:42;13.90;;;2.67;;
52126;SDS011;38120;53.176;6.614;2024-01-15T13:23:08;11.23;;;3.63;;
52126;SDS011;38120;53.176;6.614;2024-01-15T13:30:30;9.17;;;3.03;;
52126;SDS011;38120;53.176;6.614;2024-01-15T13:32:56;11.35;;;3.40;;
52126;SDS011;38120;53.176;6.614;2024-01-15T13:37:48;13.63;;;3.28;;
52126;SDS011;38120;53.176;6.614;2024-01-15T13:40:14;4.90;;;2.13;;
52126;SDS011;38120;53.176;6.614;2024-01-15T13:42:45;8.63;;;2.58;;
52126;SDS011;38120;53.176;6.614;2024-01-15T13:45:12;7.63;;;2.40;;
52126;SDS011;38120;53.176;6.614;2024-01-15T13:47:39;11.70;;;3.67;;
52126;SDS011;38120;53.176;6.614;2024-01-15T13:50:07;8.15;;;2.35;;
52126;SDS011;38120;53.176;6.614;2024-01-15T13:52:34;8.80;;;2.50;;
52126;SDS011;38120;53.176;6.614;2024-01-15T13:55:00;8.63;;;2.40;;
52126;SDS011;38120;53.176;6.614;2024-01-15T13:57:26;6.55;;;2.63;;
52126;SDS011;38120;53.176;6.614;2024-01-15T13:59:51;8.75;;;2.13;;
52126;SDS011;38120;53.176;6.614;2024-01-15T14:02:17;4.40;;;1.77;;
52126;SDS011;38120;53.176;6.614;2024-01-15T14:04:45;5.05;;;2.25;;
52126;SDS011;38120;53.176;6.614;2024-01-15T14:07:11;9.27;;;2.78;;
52126;SDS011;38120;53.176;6.614;2024-01-15T14:09:37;8.67;;;2.30;;
52126;SDS011;38120;53.176;6.614;2024-01-15T14:12:03;7.63;;;2.63;;
52126;SDS011;38120;53.176;6.614;2024-01-15T14:14:29;5.07;;;2.03;;
52126;SDS011;38120;53.176;6.614;2024-01-15T14:16:54;7.03;;;2.00;;
52126;SDS011;38120;53.176;6.614;2024-01-15T14:19:20;10.60;;;2.60;;
52126;SDS011;38120;53.176;6.614;2024-01-15T14:21:46;8.83;;;2.53;;
52126;SDS011;38120;53.176;6.614;2024-01-15T14:24:11;5.10;;;2.20;;
52126;SDS011;38120;53.176;6.614;2024-01-15T14:26:37;9.07;;;2.23;;
52126;SDS011;38120;53.176;6.614;2024-01-15T14:29:03;15.43;;;3.43;;
52126;SDS011;38120;53.176;6.614;2024-01-15T14:31:28;7.93;;;3.43;;
52126;SDS011;38120;53.176;6.614;2024-01-15T14:33:54;8.17;;;3.33;;
52126;SDS011;38120;53.176;6.614;2024-01-15T14:36:24;9.38;;;2.60;;
52126;SDS011;38120;53.176;6.614;2024-01-15T14:38:50;16.33;;;3.40;;
52126;SDS011;38120;53.176;6.614;2024-01-15T14:41:16;13.03;;;3.47;;
52126;SDS011;38120;53.176;6.614;2024-01-15T14:43:44;9.55;;;2.65;;
52126;SDS011;38120;53.176;6.614;2024-01-15T14:46:10;11.53;;;3.40;;
52126;SDS011;38120;53.176;6.614;2024-01-15T14:48:36;10.60;;;3.90;;
52126;SDS011;38120;53.176;6.614;2024-01-15T14:51:02;12.03;;;3.53;;
52126;SDS011;38120;53.176;6.614;2024-01-15T14:53:28;8.70;;;3.72;;
52126;SDS011;38120;53.176;6.614;2024-01-15T14:55:54;12.02;;;3.97;;
52126;SDS011;38120;53.176;6.614;2024-01-15T14:58:20;13.40;;;3.83;;
52126;SDS011;38120;53.176;6.614;2024-01-15T15:00:45;10.02;;;3.92;;
52126;SDS011;38120;53.176;6.614;2024-01-15T15:03:11;13.47;;;3.67;;
52126;SDS011;38120;53.176;6.614;2024-01-15T15:05:39;9.80;;;4.22;;
52126;SDS011;38120;53.176;6.614;2024-01-15T15:08:05;12.27;;;3.80;;
52126;SDS011;38120;53.176;6.614;2024-01-15T15:10:34;9.43;;;3.75;;
52126;SDS011;38120;53.176;6.614;2024-01-15T15:13:01;8.77;;;2.97;;
52126;SDS011;38120;53.176;6.614;2024-01-15T15:15:27;14.73;;;3.65;;
52126;SDS011;38120;53.176;6.614;2024-01-15T15:17:52;9.65;;;3.60;;
52126;SDS011;38120;53.176;6.614;2024-01-15T15:20:18;9.13;;;3.23;;
52126;SDS011;38120;53.176;6.614;2024-01-15T15:22:44;13.03;;;3.53;;
52126;SDS011;38120;53.176;6.614;2024-01-15T15:25:10;11.68;;;4.88;;